createdAt,value
2022-12-17T00:02:46.987Z,1.70
2022-12-17T00:04:07.725Z,1.70
2022-12-17T00:05:29.910Z,1.70
2022-12-17T00:06:53.938Z,1.60
2022-12-17T00:08:19.051Z,1.70
2022-12-17T00:09:39.849Z,1.80
2022-12-17T00:11:03.268Z,1.60
2022-12-17T00:12:24.585Z,1.50
2022-12-17T00:13:48.147Z,1.60
2022-12-17T00:15:08.721Z,1.70
2022-12-17T00:16:31.063Z,1.80
2022-12-17T00:18:00.269Z,1.80
2022-12-17T00:19:24.394Z,1.80
2022-12-17T00:20:45.275Z,1.50
2022-12-17T00:22:09.997Z,1.80
2022-12-17T00:23:30.715Z,1.70
2022-12-17T00:26:28.580Z,1.50
2022-12-17T00:27:49.926Z,1.60
2022-12-17T00:29:11.379Z,1.60
2022-12-17T00:30:32.299Z,1.50
2022-12-17T00:31:56.932Z,1.30
2022-12-17T00:33:19.431Z,1.50
2022-12-17T00:36:15.674Z,1.50
2022-12-17T00:39:13.043Z,1.50
2022-12-17T00:40:34.226Z,1.20
2022-12-17T00:41:58.089Z,1.50
2022-12-17T00:43:30.276Z,1.30
2022-12-17T00:44:53.763Z,1.30
2022-12-17T00:46:24.407Z,1.20
2022-12-17T00:47:44.807Z,1.40
2022-12-17T00:49:12.856Z,1.30
2022-12-17T00:50:38.061Z,1.30
2022-12-17T00:52:00.399Z,1.40
2022-12-17T00:53:24.389Z,1.40
2022-12-17T00:56:25.539Z,1.50
2022-12-17T01:00:54.589Z,1.40
2022-12-17T01:02:25.109Z,1.10
2022-12-17T01:03:48.367Z,1.20
2022-12-17T01:05:09.513Z,1.50
2022-12-17T01:06:31.194Z,1.30
2022-12-17T01:07:52.802Z,1.30
2022-12-17T01:09:14.116Z,1.20
2022-12-17T01:10:36.948Z,1.30
2022-12-17T01:13:36.759Z,1.20
2022-12-17T01:14:57.771Z,1.30
2022-12-17T01:16:32.189Z,1.20
2022-12-17T01:17:54.520Z,1.30
2022-12-17T01:19:21.397Z,1.10
2022-12-17T01:20:45.044Z,1.30
2022-12-17T01:22:06.468Z,1.20
2022-12-17T01:23:28.109Z,1.00
2022-12-17T01:24:49.621Z,1.10
2022-12-17T01:26:16.031Z,1.20
2022-12-17T01:27:37.099Z,1.00
2022-12-17T01:28:59.718Z,1.00
2022-12-17T01:31:57.325Z,1.10
2022-12-17T01:33:24.194Z,0.80
2022-12-17T01:34:44.584Z,0.90
2022-12-17T01:36:04.833Z,0.80
2022-12-17T01:37:28.693Z,0.70
2022-12-17T01:38:58.032Z,0.90
2022-12-17T01:40:19.947Z,0.80
2022-12-17T01:41:50.051Z,0.80
2022-12-17T01:43:10.386Z,0.70
2022-12-17T01:45:08.670Z,0.60
2022-12-17T01:46:29.352Z,0.80
2022-12-17T01:48:13.758Z,0.70
2022-12-17T01:49:34.285Z,0.50
2022-12-17T01:52:35.294Z,0.40
2022-12-17T01:54:10.864Z,0.60
2022-12-17T01:55:31.170Z,0.50
2022-12-17T01:56:54.099Z,0.40
2022-12-17T01:58:28.637Z,0.50
2022-12-17T02:00:01.842Z,0.40
2022-12-17T02:01:23.101Z,0.30
2022-12-17T02:02:43.895Z,0.40
2022-12-17T02:04:05.467Z,0.30
2022-12-17T02:05:29.113Z,0.50
2022-12-17T02:06:59.396Z,0.30
2022-12-17T02:08:58.402Z,0.50
2022-12-17T02:10:53.400Z,0.30
2022-12-17T02:12:58.236Z,0.30
2022-12-17T02:14:25.837Z,0.20
2022-12-17T02:16:13.372Z,0.10
2022-12-17T02:17:39.905Z,0.00
2022-12-17T02:19:13.266Z,0.00
2022-12-17T02:20:43.883Z,0.00
2022-12-17T02:22:11.782Z,-0.10
2022-12-17T02:23:56.586Z,-0.40
2022-12-17T02:25:36.000Z,0.10
2022-12-17T02:27:02.749Z,-0.20
2022-12-17T02:28:23.786Z,0.00
2022-12-17T02:29:47.443Z,0.00
2022-12-17T02:31:09.352Z,-0.50
2022-12-17T02:32:32.792Z,0.00
2022-12-17T02:33:54.610Z,0.00
2022-12-17T02:35:16.245Z,-0.10
2022-12-17T02:36:37.870Z,0.20
2022-12-17T02:38:04.687Z,0.00
2022-12-17T02:39:25.453Z,-0.10
2022-12-17T02:40:46.642Z,0.10
2022-12-17T02:42:14.058Z,0.00
2022-12-17T02:43:39.081Z,0.00
2022-12-17T02:46:36.912Z,0.20
2022-12-17T02:47:58.836Z,0.20
2022-12-17T02:49:20.826Z,0.20
2022-12-17T02:50:45.507Z,0.10
2022-12-17T02:52:06.751Z,0.10
2022-12-17T02:53:28.662Z,0.10
2022-12-17T02:54:50.449Z,0.10
2022-12-17T02:56:12.339Z,0.10
2022-12-17T02:57:32.455Z,0.10
2022-12-17T02:58:53.368Z,0.30
2022-12-17T03:00:14.924Z,0.20
2022-12-17T03:01:35.457Z,0.30
2022-12-17T03:02:56.854Z,0.00
2022-12-17T03:04:17.273Z,0.30
2022-12-17T03:05:45.968Z,0.10
2022-12-17T03:07:06.380Z,0.10
2022-12-17T03:08:26.675Z,-0.20
2022-12-17T03:09:47.483Z,0.20
2022-12-17T03:11:07.622Z,0.20
2022-12-17T03:12:27.921Z,0.10
2022-12-17T03:13:50.446Z,0.20
2022-12-17T03:15:12.425Z,0.10
2022-12-17T03:16:37.713Z,0.00
2022-12-17T03:18:00.401Z,0.00
2022-12-17T03:19:21.661Z,0.30
2022-12-17T03:20:42.048Z,0.10
2022-12-17T03:22:02.458Z,0.00
2022-12-17T03:23:25.265Z,0.00
2022-12-17T03:24:46.243Z,0.00
2022-12-17T03:26:08.306Z,0.00
2022-12-17T03:27:28.581Z,0.10
2022-12-17T03:28:48.959Z,0.10
2022-12-17T03:30:10.833Z,-0.10
2022-12-17T03:31:31.646Z,0.10
2022-12-17T03:32:53.074Z,0.10
2022-12-17T03:34:13.324Z,0.20
2022-12-17T03:35:33.792Z,-0.10
2022-12-17T03:36:54.041Z,0.00
2022-12-17T03:38:14.886Z,-0.10
2022-12-17T03:39:35.429Z,0.00
2022-12-17T03:40:56.421Z,0.10
2022-12-17T03:42:17.178Z,0.10
2022-12-17T03:43:37.793Z,0.10
2022-12-17T03:44:58.608Z,0.00
2022-12-17T03:46:21.144Z,0.10
2022-12-17T03:47:41.663Z,0.00
2022-12-17T03:49:02.078Z,0.20
2022-12-17T03:50:23.875Z,0.20
2022-12-17T03:51:51.819Z,0.10
2022-12-17T03:53:12.213Z,-0.10
2022-12-17T03:54:33.366Z,0.00
2022-12-17T03:55:53.788Z,0.10
2022-12-17T03:57:16.253Z,0.20
2022-12-17T03:58:36.935Z,0.00
2022-12-17T03:59:59.873Z,-0.10
2022-12-17T04:01:20.775Z,0.20
2022-12-17T04:02:43.223Z,0.10
2022-12-17T04:04:03.828Z,0.10
2022-12-17T04:05:24.822Z,0.00
2022-12-17T04:06:47.026Z,0.10
2022-12-17T04:08:07.285Z,0.00
2022-12-17T04:09:29.014Z,0.10
2022-12-17T04:10:49.297Z,-0.10
2022-12-17T04:12:09.588Z,-0.10
2022-12-17T04:13:30.304Z,0.10
2022-12-17T04:14:51.082Z,0.10
2022-12-17T04:16:11.795Z,0.20
2022-12-17T04:17:32.029Z,0.20
2022-12-17T04:18:52.576Z,0.30
2022-12-17T04:20:13.215Z,0.30
2022-12-17T04:21:34.151Z,0.00
2022-12-17T04:22:54.422Z,0.10
2022-12-17T04:24:14.470Z,0.40
2022-12-17T04:25:34.785Z,0.30
2022-12-17T04:26:57.227Z,0.10
2022-12-17T04:28:17.680Z,0.30
2022-12-17T04:29:41.099Z,0.20
2022-12-17T04:31:01.861Z,0.30
2022-12-17T04:32:22.786Z,0.30
2022-12-17T04:33:43.274Z,0.20
2022-12-17T04:35:03.402Z,0.10
2022-12-17T04:36:24.069Z,0.30
2022-12-17T04:37:44.306Z,0.20
2022-12-17T04:39:05.753Z,0.30
2022-12-17T04:40:29.363Z,0.30
2022-12-17T04:41:49.809Z,0.30
2022-12-17T04:43:10.540Z,0.10
2022-12-17T04:44:30.914Z,0.30
2022-12-17T04:45:51.596Z,0.20
2022-12-17T04:47:12.534Z,0.10
2022-12-17T04:48:33.330Z,0.00
2022-12-17T04:49:53.581Z,0.20
2022-12-17T04:51:14.358Z,0.00
2022-12-17T04:52:35.280Z,0.30
2022-12-17T04:53:55.755Z,0.10
2022-12-17T04:55:15.843Z,0.10
2022-12-17T04:56:36.301Z,0.10
2022-12-17T04:57:56.850Z,0.20
2022-12-17T04:59:17.261Z,0.30
2022-12-17T05:00:37.796Z,0.10
2022-12-17T05:02:00.002Z,0.00
2022-12-17T05:03:30.302Z,0.20
2022-12-17T05:04:51.069Z,0.30
2022-12-17T05:06:12.229Z,0.10
2022-12-17T05:07:32.885Z,0.00
2022-12-17T05:08:53.435Z,0.10
2022-12-17T05:10:13.630Z,0.20
2022-12-17T05:11:34.858Z,0.20
2022-12-17T05:12:55.548Z,0.10
2022-12-17T05:14:24.324Z,0.00
2022-12-17T05:15:51.331Z,0.10
2022-12-17T05:17:14.875Z,0.00
2022-12-17T05:18:37.464Z,0.20
2022-12-17T05:20:02.148Z,0.10
2022-12-17T05:21:22.476Z,0.10
2022-12-17T05:22:43.461Z,0.00
2022-12-17T05:24:03.715Z,0.20
2022-12-17T05:25:24.703Z,0.20
2022-12-17T05:26:57.131Z,-0.40
2022-12-17T05:28:19.196Z,0.30
2022-12-17T05:29:39.520Z,0.20
2022-12-17T05:31:04.718Z,0.40
2022-12-17T05:32:25.409Z,0.30
2022-12-17T05:33:46.989Z,0.40
2022-12-17T05:35:09.636Z,0.10
2022-12-17T05:36:30.355Z,0.20
2022-12-17T05:37:51.465Z,0.40
2022-12-17T05:39:13.809Z,0.40
2022-12-17T05:40:38.541Z,0.20
2022-12-17T05:41:59.117Z,0.20
2022-12-17T05:43:25.534Z,0.40
2022-12-17T05:44:48.565Z,0.30
2022-12-17T05:46:10.520Z,0.30
2022-12-17T05:47:34.534Z,0.30
2022-12-17T05:48:55.888Z,0.20
2022-12-17T05:50:20.774Z,0.40
2022-12-17T05:51:43.081Z,0.20
2022-12-17T05:53:03.883Z,0.30
2022-12-17T05:54:24.490Z,0.40
2022-12-17T05:55:46.762Z,-0.10
2022-12-17T05:57:12.704Z,0.30
2022-12-17T05:58:33.366Z,0.60
2022-12-17T05:59:57.571Z,0.50
2022-12-17T06:01:19.643Z,0.50
2022-12-17T06:02:40.246Z,0.40
2022-12-17T06:04:08.128Z,0.60
2022-12-17T06:05:28.631Z,0.40
2022-12-17T06:06:53.030Z,0.60
2022-12-17T06:08:23.573Z,0.60
2022-12-17T06:09:45.594Z,0.40
2022-12-17T06:11:05.868Z,0.60
2022-12-17T06:12:32.862Z,0.20
2022-12-17T06:13:56.879Z,0.60
2022-12-17T06:15:18.327Z,0.30
2022-12-17T06:16:39.588Z,0.40
2022-12-17T06:18:02.864Z,0.40
2022-12-17T06:21:03.490Z,0.20
2022-12-17T06:22:25.200Z,0.30
2022-12-17T06:23:47.753Z,0.20
2022-12-17T06:25:09.986Z,0.10
2022-12-17T06:26:37.276Z,0.10
2022-12-17T06:33:04.509Z,0.00
2022-12-17T06:34:27.113Z,0.20
2022-12-17T06:35:47.424Z,0.00
2022-12-17T06:37:10.759Z,0.00
2022-12-17T06:38:31.913Z,0.10
2022-12-17T06:43:12.240Z,0.20
2022-12-17T06:44:58.228Z,0.30
2022-12-17T06:46:19.689Z,0.10
2022-12-17T06:47:42.138Z,0.40
2022-12-17T06:50:41.635Z,0.20
2022-12-17T06:52:09.543Z,0.10
2022-12-17T06:53:35.340Z,0.30
2022-12-17T06:54:58.527Z,-0.10
2022-12-17T06:56:19.537Z,0.10
2022-12-17T06:57:47.440Z,0.00
2022-12-17T06:59:28.844Z,0.00
2022-12-17T07:00:56.726Z,0.00
2022-12-17T07:02:19.233Z,0.10
2022-12-17T07:03:42.574Z,0.10
2022-12-17T07:05:08.851Z,0.40
2022-12-17T07:06:32.301Z,0.30
2022-12-17T07:07:53.019Z,0.10
2022-12-17T07:09:14.922Z,0.10
2022-12-17T07:10:35.646Z,0.30
2022-12-17T07:13:30.080Z,0.00
2022-12-17T07:14:59.561Z,0.10
2022-12-17T07:18:04.017Z,0.10
2022-12-17T07:22:51.648Z,-0.10
2022-12-17T07:24:11.740Z,0.10
2022-12-17T07:25:32.167Z,-0.10
2022-12-17T07:26:52.476Z,-0.10
2022-12-17T07:28:16.291Z,-0.20
2022-12-17T07:29:36.366Z,-0.10
2022-12-17T07:30:56.897Z,-0.10
2022-12-17T07:32:17.676Z,0.10
2022-12-17T07:33:38.114Z,0.10
2022-12-17T07:34:59.083Z,0.20
2022-12-17T07:36:33.246Z,0.00
2022-12-17T07:37:53.590Z,-0.10
2022-12-17T07:39:14.147Z,-0.30
2022-12-17T07:40:34.723Z,-0.20
2022-12-17T07:41:57.638Z,-0.30
2022-12-17T07:43:19.199Z,-0.40
2022-12-17T07:44:39.448Z,-0.60
2022-12-17T07:46:00.231Z,-0.50
2022-12-17T07:47:20.714Z,-0.50
2022-12-17T07:48:41.061Z,-0.70
2022-12-17T07:50:01.672Z,-0.70
2022-12-17T07:51:22.142Z,-0.70
2022-12-17T07:52:42.687Z,-0.50
2022-12-17T07:54:03.036Z,-0.80
2022-12-17T07:55:23.257Z,-0.70
2022-12-17T07:56:52.686Z,-0.70
2022-12-17T07:58:27.765Z,-0.90
2022-12-17T07:59:47.929Z,-1.00
2022-12-17T08:01:09.675Z,-1.00
2022-12-17T08:02:32.779Z,-0.90
2022-12-17T08:03:55.328Z,-0.90
2022-12-17T08:05:15.739Z,-1.10
2022-12-17T08:06:36.677Z,-0.90
2022-12-17T08:08:00.325Z,-1.10
2022-12-17T08:09:21.402Z,-1.20
2022-12-17T08:10:43.732Z,-1.20
2022-12-17T08:12:04.094Z,-1.40
2022-12-17T08:13:25.159Z,-1.50
2022-12-17T08:14:45.475Z,-1.40
2022-12-17T08:16:11.929Z,-1.50
2022-12-17T08:17:35.016Z,-1.30
2022-12-17T08:18:55.492Z,-1.30
2022-12-17T08:20:16.015Z,-1.30
2022-12-17T08:21:36.961Z,-1.30
2022-12-17T08:23:01.031Z,-1.50
2022-12-17T08:24:21.332Z,-1.50
2022-12-17T08:25:44.025Z,-1.30
2022-12-17T08:27:04.627Z,-1.50
2022-12-17T08:31:49.211Z,-1.40
2022-12-17T08:33:11.237Z,-1.40
2022-12-17T08:34:32.302Z,-1.30
2022-12-17T08:35:54.104Z,-1.30
2022-12-17T08:37:16.979Z,-1.30
2022-12-17T08:38:37.343Z,-1.40
2022-12-17T08:41:35.845Z,-1.30
2022-12-17T08:42:56.043Z,-1.30
2022-12-17T08:44:16.810Z,-1.30
2022-12-17T08:45:38.592Z,-1.30
2022-12-17T08:47:01.180Z,-1.10
2022-12-17T08:48:27.561Z,-1.00
2022-12-17T08:49:48.006Z,-1.10
2022-12-17T08:51:09.090Z,-1.00
2022-12-17T08:52:32.404Z,-1.10
2022-12-17T08:53:52.909Z,-1.00
2022-12-17T08:55:15.658Z,-1.10
2022-12-17T08:56:37.098Z,-0.90
2022-12-17T08:58:00.236Z,-0.90
2022-12-17T08:59:20.673Z,-0.80
2022-12-17T09:00:41.289Z,-0.70
2022-12-17T09:02:02.006Z,-0.80
2022-12-17T09:03:22.604Z,-0.90
2022-12-17T09:04:44.434Z,-0.90
2022-12-17T09:06:06.912Z,-0.70
2022-12-17T09:07:38.549Z,-0.50
2022-12-17T09:11:32.716Z,-0.80
2022-12-17T09:14:53.831Z,-0.90
2022-12-17T09:16:17.225Z,-1.00
2022-12-17T09:17:39.847Z,-0.80
2022-12-17T09:19:01.164Z,-0.90
2022-12-17T09:20:28.913Z,-0.70
2022-12-17T09:21:50.534Z,-0.70
2022-12-17T09:23:10.772Z,-0.90
2022-12-17T09:24:31.713Z,-0.80
2022-12-17T09:25:57.868Z,-0.90
2022-12-17T09:27:18.554Z,-0.90
2022-12-17T09:28:39.016Z,-0.80
2022-12-17T09:29:59.717Z,-0.80
2022-12-17T09:31:20.324Z,-0.80
2022-12-17T09:33:03.594Z,-0.60
2022-12-17T09:34:24.760Z,-0.60
2022-12-17T09:35:45.261Z,-0.90
2022-12-17T09:37:08.200Z,-1.00
2022-12-17T09:38:32.852Z,-0.70
2022-12-17T09:39:53.585Z,-0.90
2022-12-17T09:41:25.343Z,-0.80
2022-12-17T09:43:03.754Z,-0.80
2022-12-17T09:45:03.070Z,-0.80
2022-12-17T09:46:38.835Z,-0.90
2022-12-17T09:48:18.126Z,-0.90
2022-12-17T09:49:46.359Z,-1.10
2022-12-17T09:51:10.696Z,-0.90
2022-12-17T09:52:46.349Z,-1.00
2022-12-17T09:54:11.633Z,-1.10
2022-12-17T09:55:52.426Z,-1.30
2022-12-17T09:57:12.631Z,-1.10
2022-12-17T09:58:44.721Z,-1.20
2022-12-17T10:00:04.755Z,-0.90
2022-12-17T10:01:37.461Z,-0.90
2022-12-17T10:02:58.036Z,-0.90
2022-12-17T10:04:18.950Z,-0.80
2022-12-17T10:05:49.743Z,-0.70
2022-12-17T10:07:10.579Z,-0.70
2022-12-17T10:08:35.550Z,-0.70
2022-12-17T10:09:58.988Z,-0.50
2022-12-17T10:11:57.598Z,-0.60
2022-12-17T10:13:19.290Z,-0.50
2022-12-17T10:14:42.123Z,-0.30
2022-12-17T10:16:03.730Z,-0.60
2022-12-17T10:17:24.817Z,-0.50
2022-12-17T10:18:47.169Z,-0.50
2022-12-17T10:21:52.768Z,-0.50
2022-12-17T10:23:21.676Z,-0.50
2022-12-17T10:24:43.329Z,-0.20
2022-12-17T10:26:22.081Z,-0.20
2022-12-17T10:27:42.961Z,-0.20
2022-12-17T10:29:03.473Z,-0.30
2022-12-17T10:30:36.468Z,-0.30
2022-12-17T10:32:36.943Z,0.00
2022-12-17T10:35:44.754Z,-0.20
2022-12-17T10:37:10.306Z,-0.30
2022-12-17T10:38:40.619Z,-0.60
2022-12-17T10:40:02.798Z,-0.40
2022-12-17T10:41:23.682Z,-0.30
2022-12-17T10:42:57.700Z,-0.30
2022-12-17T10:44:19.172Z,-0.40
2022-12-17T10:45:42.587Z,-0.30
2022-12-17T10:47:03.062Z,-0.30
2022-12-17T10:48:40.351Z,-0.40
2022-12-17T10:50:00.733Z,-0.10
2022-12-17T10:51:22.611Z,-0.20
2022-12-17T10:53:04.411Z,-0.40
2022-12-17T10:54:41.620Z,-0.10
2022-12-17T10:56:14.302Z,-0.40
2022-12-17T10:57:51.703Z,-0.70
2022-12-17T10:59:13.080Z,-0.40
2022-12-17T11:00:49.714Z,-0.40
2022-12-17T11:02:17.025Z,-0.20
2022-12-17T11:03:56.666Z,-0.20
2022-12-17T11:05:37.595Z,-0.20
2022-12-17T11:07:02.606Z,-0.20
2022-12-17T11:08:23.370Z,-0.30
2022-12-17T11:09:47.949Z,-0.30
2022-12-17T11:12:53.237Z,-0.20
2022-12-17T11:14:17.702Z,-0.40
2022-12-17T11:15:53.571Z,-0.40
2022-12-17T11:17:29.157Z,-0.50
2022-12-17T11:19:01.422Z,-0.40
2022-12-17T11:20:31.013Z,-0.40
2022-12-17T11:21:58.111Z,-0.40
2022-12-17T11:23:19.472Z,-0.50
2022-12-17T11:24:47.543Z,-0.30
2022-12-17T11:26:23.002Z,-0.40
2022-12-17T11:27:47.742Z,-0.10
2022-12-17T11:29:11.474Z,-0.30
2022-12-17T11:30:39.505Z,-0.20
2022-12-17T11:32:29.451Z,-0.40
2022-12-17T11:34:02.847Z,-0.30
2022-12-17T11:35:43.239Z,0.00
2022-12-17T11:37:34.634Z,-0.10
2022-12-17T11:39:28.994Z,0.00
2022-12-17T11:41:02.354Z,-0.20
2022-12-17T11:42:35.575Z,-0.30
2022-12-17T11:44:09.791Z,-0.40
2022-12-17T11:45:58.610Z,-0.60
2022-12-17T11:47:40.835Z,-0.50
2022-12-17T11:49:10.247Z,-0.70
2022-12-17T11:50:49.456Z,-0.70
2022-12-17T11:52:33.189Z,-0.40
2022-12-17T11:54:26.644Z,-0.60
2022-12-17T11:55:55.151Z,-0.60
2022-12-17T11:57:36.318Z,-0.60
2022-12-17T11:59:04.081Z,-0.70
2022-12-17T12:00:42.561Z,-0.80
2022-12-17T12:02:32.082Z,-0.80
2022-12-17T12:04:17.503Z,-0.80
2022-12-17T12:05:42.345Z,-0.80
2022-12-17T12:07:34.322Z,-0.80
2022-12-17T12:09:09.437Z,-0.70
2022-12-17T12:10:53.018Z,-0.30
2022-12-17T12:12:32.237Z,-0.60
2022-12-17T12:14:12.783Z,-0.40
2022-12-17T12:16:02.202Z,-0.60
2022-12-17T12:18:13.200Z,-0.40
2022-12-17T12:20:23.664Z,-0.50
2022-12-17T12:22:19.061Z,-0.50
2022-12-17T12:24:02.886Z,-0.30
2022-12-17T12:25:54.507Z,-0.20
2022-12-17T12:27:43.198Z,-0.40
2022-12-17T12:29:11.217Z,-0.30
2022-12-17T12:30:50.802Z,-0.30
2022-12-17T12:32:29.512Z,-0.40
2022-12-17T12:34:02.832Z,-0.40
2022-12-17T12:35:26.003Z,-0.20
2022-12-17T12:36:49.045Z,-0.50
2022-12-17T12:38:13.525Z,-0.50
2022-12-17T12:39:49.025Z,-0.30
2022-12-17T12:41:23.815Z,0.00
2022-12-17T12:42:59.048Z,-0.20
2022-12-17T12:44:25.540Z,-0.30
2022-12-17T12:46:03.681Z,-0.30
2022-12-17T12:47:31.581Z,-0.20
2022-12-17T12:49:13.691Z,-0.10
2022-12-17T12:50:48.993Z,-0.20
2022-12-17T12:52:17.942Z,-0.20
2022-12-17T12:53:40.540Z,0.10
2022-12-17T12:55:03.792Z,0.10
2022-12-17T12:56:46.022Z,-0.20
2022-12-17T12:58:18.987Z,-0.10
2022-12-17T12:59:51.120Z,-0.30
2022-12-17T13:01:13.378Z,-0.10
2022-12-17T13:02:39.415Z,0.00
2022-12-17T13:05:40.438Z,-0.30
2022-12-17T13:06:44.996Z,0.00
2022-12-17T13:10:40.762Z,0.00
2022-12-17T13:11:46.005Z,0.00
2022-12-17T13:12:49.260Z,0.10
2022-12-17T13:13:58.317Z,0.20
2022-12-17T13:15:20.916Z,0.00
2022-12-17T13:16:31.245Z,0.00
2022-12-17T13:17:55.227Z,0.10
2022-12-17T13:19:22.217Z,0.10
2022-12-17T13:20:28.915Z,-0.10
2022-12-17T13:21:31.847Z,-0.10
2022-12-17T13:22:33.760Z,-0.10
2022-12-17T13:23:38.275Z,-0.10
2022-12-17T13:24:46.875Z,0.00
2022-12-17T13:25:49.565Z,0.00
2022-12-17T13:26:53.089Z,0.10
2022-12-17T13:27:54.745Z,0.00
2022-12-17T13:29:02.548Z,0.10
2022-12-17T13:30:24.435Z,0.20
2022-12-17T13:31:46.508Z,0.20
2022-12-17T13:33:33.944Z,0.20
2022-12-17T13:35:20.088Z,0.40
2022-12-17T13:36:57.096Z,0.40
2022-12-17T13:38:26.983Z,0.40
2022-12-17T13:39:34.037Z,0.60
2022-12-17T13:41:06.641Z,0.60
2022-12-17T13:42:36.381Z,0.40
2022-12-17T13:43:54.582Z,0.70
2022-12-17T13:44:58.850Z,0.50
2022-12-17T13:46:01.259Z,0.50
2022-12-17T13:47:03.423Z,0.40
2022-12-17T13:48:05.342Z,0.40
2022-12-17T13:49:21.617Z,0.40
2022-12-17T13:50:34.358Z,0.70
2022-12-17T13:51:37.526Z,0.20
2022-12-17T13:52:43.134Z,0.40
2022-12-17T13:53:53.171Z,0.30
2022-12-17T13:55:07.036Z,0.60
2022-12-17T13:56:10.735Z,0.70
2022-12-17T13:58:33.496Z,0.60
2022-12-17T13:59:35.447Z,0.50
2022-12-17T14:00:38.044Z,0.60
2022-12-17T14:01:50.832Z,0.60
2022-12-17T14:02:53.704Z,0.60
2022-12-17T14:04:08.223Z,0.90
2022-12-17T14:05:57.504Z,0.90
2022-12-17T14:07:05.467Z,0.80
2022-12-17T14:08:07.212Z,0.70
2022-12-17T14:09:18.600Z,0.70
2022-12-17T14:10:20.982Z,0.50
2022-12-17T14:11:41.522Z,0.50
2022-12-17T14:12:43.848Z,0.60
2022-12-17T14:13:48.811Z,0.70
2022-12-17T14:15:03.187Z,0.40
2022-12-17T14:16:05.668Z,0.50
2022-12-17T14:17:17.410Z,0.60
2022-12-17T14:18:21.728Z,0.50
2022-12-17T14:19:25.437Z,0.50
2022-12-17T14:20:30.961Z,0.70
2022-12-17T14:21:32.662Z,0.50
2022-12-17T14:22:51.353Z,0.40
2022-12-17T14:23:56.103Z,0.70
2022-12-17T14:24:58.022Z,0.60
2022-12-17T14:26:00.601Z,0.40
2022-12-17T14:27:03.451Z,0.40
2022-12-17T14:28:20.196Z,0.30
2022-12-17T14:29:27.747Z,0.20
2022-12-17T14:30:29.506Z,0.20
2022-12-17T14:31:31.178Z,0.20
2022-12-17T14:32:37.386Z,0.00
2022-12-17T14:33:39.142Z,0.10
2022-12-17T14:34:42.337Z,0.00
2022-12-17T14:35:52.215Z,-0.10
2022-12-17T14:36:57.557Z,0.10
2022-12-17T14:37:59.730Z,0.00
2022-12-17T14:39:11.014Z,-0.20
2022-12-17T14:40:15.566Z,-0.10
2022-12-17T14:41:37.101Z,-0.10
2022-12-17T14:42:39.588Z,-0.10
2022-12-17T14:43:41.564Z,0.00
2022-12-17T14:44:51.536Z,-0.20
2022-12-17T14:46:19.705Z,-0.20
2022-12-17T14:47:35.809Z,0.10
2022-12-17T14:48:56.468Z,-0.10
2022-12-17T14:50:21.470Z,0.00
2022-12-17T14:51:41.342Z,-0.30
2022-12-17T14:52:53.097Z,-0.50
2022-12-17T14:54:32.271Z,-0.50
2022-12-17T14:55:41.486Z,-0.50
2022-12-17T14:56:44.469Z,-0.50
2022-12-17T14:57:46.996Z,-0.40
2022-12-17T14:58:48.684Z,-0.50
2022-12-17T14:59:52.589Z,-0.60
2022-12-17T15:01:04.644Z,-0.50
2022-12-17T15:02:09.332Z,-0.60
2022-12-17T15:03:29.719Z,-0.70
2022-12-17T15:04:33.091Z,-0.70
2022-12-17T15:05:35.500Z,-0.50
2022-12-17T15:06:37.313Z,-0.60
2022-12-17T15:07:39.460Z,-0.70
2022-12-17T15:08:45.837Z,-0.60
2022-12-17T15:09:48.567Z,-0.60
2022-12-17T15:10:50.362Z,-0.70
2022-12-17T15:11:52.118Z,-0.40
2022-12-17T15:12:53.876Z,-0.60
2022-12-17T15:13:56.818Z,-0.70
2022-12-17T15:14:58.851Z,-0.50
2022-12-17T15:16:00.613Z,-0.60
2022-12-17T15:17:02.352Z,-0.60
2022-12-17T15:18:04.195Z,-0.50
2022-12-17T15:19:06.243Z,-0.30
2022-12-17T15:20:16.877Z,-0.60
2022-12-17T15:21:19.046Z,-0.60
2022-12-17T15:22:23.625Z,-0.50
2022-12-17T15:23:25.449Z,-0.50
2022-12-17T15:24:28.469Z,-0.40
2022-12-17T15:25:30.232Z,-0.30
2022-12-17T15:26:31.862Z,-0.30
2022-12-17T15:27:33.499Z,-0.30
2022-12-17T15:28:36.032Z,-0.30
2022-12-17T15:29:39.179Z,-0.30
2022-12-17T15:30:40.960Z,-0.10
2022-12-17T15:31:44.147Z,-0.20
2022-12-17T15:32:46.241Z,-0.10
2022-12-17T15:33:47.891Z,-0.10
2022-12-17T15:34:51.106Z,0.10
2022-12-17T15:35:52.815Z,0.00
2022-12-17T15:36:54.910Z,-0.10
2022-12-17T15:37:56.689Z,-0.10
2022-12-17T15:38:59.261Z,-0.20
2022-12-17T15:40:01.208Z,0.00
2022-12-17T15:41:32.071Z,-0.10
2022-12-17T15:42:52.619Z,0.20
2022-12-17T15:43:54.303Z,-0.10
2022-12-17T15:44:55.911Z,0.10
2022-12-17T15:46:01.512Z,-0.20
2022-12-17T15:47:03.502Z,-0.20
2022-12-17T15:48:05.419Z,-0.20
2022-12-17T15:49:07.094Z,-0.20
2022-12-17T15:50:09.493Z,-0.20
2022-12-17T15:51:17.834Z,-0.20
2022-12-17T15:52:21.043Z,-0.10
2022-12-17T15:53:26.007Z,-0.10
2022-12-17T15:54:27.864Z,-0.10
2022-12-17T15:55:30.193Z,-0.20
2022-12-17T15:56:34.758Z,-0.20
2022-12-17T15:57:36.479Z,-0.10
2022-12-17T15:58:40.414Z,-0.20
2022-12-17T15:59:42.417Z,-0.20
2022-12-17T16:00:44.082Z,0.00
2022-12-17T16:01:49.870Z,0.00
2022-12-17T16:02:52.076Z,-0.20
2022-12-17T16:03:54.581Z,-0.20
2022-12-17T16:04:56.424Z,-0.10
2022-12-17T16:06:01.540Z,0.00
2022-12-17T16:07:03.883Z,-0.10
2022-12-17T16:08:08.230Z,-0.20
2022-12-17T16:09:12.066Z,-0.10
2022-12-17T16:10:14.636Z,-0.10
2022-12-17T16:11:16.271Z,-0.10
2022-12-17T16:12:17.965Z,-0.10
2022-12-17T16:13:19.618Z,-0.10
2022-12-17T16:14:24.688Z,-0.20
2022-12-17T16:15:26.595Z,0.00
2022-12-17T16:16:29.914Z,0.00
2022-12-17T16:17:32.103Z,-0.10
2022-12-17T16:18:33.923Z,0.00
2022-12-17T16:19:35.756Z,-0.10
2022-12-17T16:20:37.478Z,-0.10
2022-12-17T16:21:44.975Z,-0.10
2022-12-17T16:22:50.351Z,0.20
2022-12-17T16:23:52.307Z,0.10
2022-12-17T16:24:55.450Z,-0.10
2022-12-17T16:25:59.070Z,-0.10
2022-12-17T16:27:04.633Z,0.00
2022-12-17T16:28:06.638Z,-0.10
2022-12-17T16:29:08.530Z,0.00
2022-12-17T16:30:11.481Z,0.10
2022-12-17T16:31:16.393Z,-0.10
2022-12-17T16:32:18.493Z,0.10
2022-12-17T16:33:20.119Z,-0.10
2022-12-17T16:34:21.795Z,0.10
2022-12-17T16:35:24.685Z,-0.20
2022-12-17T16:36:26.520Z,0.00
2022-12-17T16:37:28.265Z,0.10
2022-12-17T16:38:31.879Z,-0.20
2022-12-17T16:39:33.546Z,-0.10
2022-12-17T16:40:35.213Z,-0.20
2022-12-17T16:41:36.865Z,-0.40
2022-12-17T16:42:38.593Z,-0.10
2022-12-17T16:43:42.021Z,-0.40
2022-12-17T16:44:44.962Z,0.00
2022-12-17T16:45:49.108Z,-0.10
2022-12-17T16:46:52.194Z,-0.20
2022-12-17T16:47:53.870Z,-0.20
2022-12-17T16:48:57.626Z,-0.10
2022-12-17T16:49:59.924Z,-0.30
2022-12-17T16:51:18.251Z,-0.20
2022-12-17T16:52:22.872Z,-0.10
2022-12-17T16:53:26.836Z,-0.10
2022-12-17T16:54:31.040Z,-0.30
2022-12-17T16:55:33.249Z,-0.50
2022-12-17T16:56:39.968Z,-0.50
2022-12-17T16:57:44.142Z,-0.40
2022-12-17T16:58:46.051Z,-0.40
2022-12-17T16:59:48.863Z,-0.30
2022-12-17T17:00:54.530Z,-0.40
2022-12-17T17:01:57.585Z,-0.40
2022-12-17T17:02:59.695Z,-0.40
2022-12-17T17:04:01.567Z,-0.40
2022-12-17T17:05:03.437Z,-0.30
2022-12-17T17:06:05.902Z,-0.30
2022-12-17T17:07:08.113Z,-0.40
2022-12-17T17:08:10.368Z,-0.40
2022-12-17T17:09:13.017Z,-0.30
2022-12-17T17:10:14.783Z,-0.40
2022-12-17T17:11:19.297Z,-0.50
2022-12-17T17:12:21.656Z,-0.60
2022-12-17T17:13:23.292Z,-0.80
2022-12-17T17:14:26.368Z,-0.80
2022-12-17T17:15:30.873Z,-0.90
2022-12-17T17:16:34.320Z,-0.80
2022-12-17T17:17:54.319Z,-1.00
2022-12-17T17:18:58.048Z,-1.00
2022-12-17T17:20:00.655Z,-1.00
2022-12-17T17:21:23.824Z,-0.80
2022-12-17T17:22:25.503Z,-0.80
2022-12-17T17:23:30.803Z,-1.00
2022-12-17T17:24:34.918Z,-1.10
2022-12-17T17:25:57.434Z,-1.00
2022-12-17T17:27:01.636Z,-1.20
2022-12-17T17:28:05.277Z,-1.30
2022-12-17T17:29:08.131Z,-1.30
2022-12-17T17:30:10.933Z,-1.10
2022-12-17T17:31:15.186Z,-1.10
2022-12-17T17:32:16.992Z,-1.20
2022-12-17T17:33:19.356Z,-1.10
2022-12-17T17:34:21.219Z,-1.20
2022-12-17T17:35:22.863Z,-1.40
2022-12-17T17:36:27.435Z,-1.30
2022-12-17T17:37:29.203Z,-1.20
2022-12-17T17:38:32.463Z,-1.40
2022-12-17T17:39:35.801Z,-1.50
2022-12-17T17:40:37.501Z,-1.50
2022-12-17T17:41:39.778Z,-1.50
2022-12-17T17:42:41.544Z,-1.70
2022-12-17T17:43:43.235Z,-1.50
2022-12-17T17:44:45.020Z,-1.60
2022-12-17T17:45:47.379Z,-1.50
2022-12-17T17:46:49.202Z,-1.60
2022-12-17T17:47:51.094Z,-1.60
2022-12-17T17:48:56.882Z,-1.50
2022-12-17T17:49:58.770Z,-1.60
2022-12-17T17:51:04.549Z,-1.30
2022-12-17T17:52:10.867Z,-1.40
2022-12-17T17:53:16.031Z,-1.60
2022-12-17T17:54:17.902Z,-1.60
2022-12-17T17:55:19.578Z,-1.50
2022-12-17T17:56:27.990Z,-1.50
2022-12-17T17:57:30.046Z,-1.40
2022-12-17T17:58:32.585Z,-1.40
2022-12-17T17:59:35.215Z,-1.30
2022-12-17T18:00:38.159Z,-1.30
2022-12-17T18:01:43.344Z,-1.40
2022-12-17T18:02:45.514Z,-1.20
2022-12-17T18:03:47.508Z,-1.40
2022-12-17T18:04:49.244Z,-1.30
2022-12-17T18:05:50.995Z,-1.40
2022-12-17T18:07:23.585Z,-1.50
2022-12-17T18:08:14.710Z,-1.30
2022-12-17T18:09:18.345Z,-1.30
2022-12-17T18:10:20.003Z,-1.20